createdAt,value
2022-11-27T00:05:18.458Z,44.75
2022-11-27T00:10:40.295Z,44.43
2022-11-27T00:16:02.436Z,44.68
2022-11-27T00:21:32.127Z,44.64
2022-11-27T00:26:53.853Z,44.66
2022-11-27T00:32:15.502Z,44.39
2022-11-27T00:37:37.368Z,44.83
2022-11-27T00:42:59.108Z,44.73
2022-11-27T00:48:20.782Z,44.53
2022-11-27T00:53:42.976Z,44.70
2022-11-27T00:59:06.058Z,44.47
2022-11-27T01:04:27.790Z,44.51
2022-11-27T01:09:49.547Z,44.19
2022-11-27T01:15:11.676Z,44.26
2022-11-27T01:20:33.296Z,44.37
2022-11-27T01:25:55.150Z,44.10
2022-11-27T01:31:20.664Z,44.22
2022-11-27T01:36:42.408Z,44.07
2022-11-27T01:42:04.319Z,44.13
2022-11-27T01:47:32.896Z,43.95
2022-11-27T01:53:00.203Z,43.86
2022-11-27T01:58:25.679Z,43.98
2022-11-27T02:03:47.413Z,44.07
2022-11-27T02:09:09.082Z,43.65
2022-11-27T02:14:53.055Z,43.49
2022-11-27T02:20:36.173Z,43.91
2022-11-27T02:26:25.658Z,43.66
2022-11-27T02:32:15.083Z,43.41
2022-11-27T02:37:39.571Z,43.84
2022-11-27T02:43:11.534Z,43.67
2022-11-27T02:48:42.705Z,43.53
2022-11-27T02:54:07.430Z,43.46
2022-11-27T02:59:32.037Z,43.45
2022-11-27T03:04:57.482Z,43.36
2022-11-27T03:10:34.553Z,43.19
2022-11-27T03:16:17.637Z,43.13
2022-11-27T03:21:42.630Z,43.38
2022-11-27T03:27:05.466Z,43.40
2022-11-27T03:32:28.960Z,43.27
2022-11-27T03:37:51.446Z,43.07
2022-11-27T03:43:23.180Z,43.35
2022-11-27T03:48:50.488Z,42.79
2022-11-27T03:54:20.805Z,43.00
2022-11-27T03:59:44.954Z,43.21
2022-11-27T04:05:07.038Z,42.94
2022-11-27T04:10:28.755Z,42.67
2022-11-27T04:15:50.473Z,42.59
2022-11-27T04:21:12.949Z,42.84
2022-11-27T04:26:34.670Z,42.48
2022-11-27T04:31:56.376Z,42.90
2022-11-27T04:37:18.091Z,42.77
2022-11-27T04:42:39.775Z,42.46
2022-11-27T04:48:01.432Z,42.79
2022-11-27T04:53:23.246Z,42.87
2022-11-27T04:58:44.976Z,42.81
2022-11-27T05:04:06.644Z,42.70
2022-11-27T05:09:28.371Z,42.73
2022-11-27T05:14:50.069Z,42.42
2022-11-27T05:20:11.858Z,42.78
2022-11-27T05:25:33.500Z,42.71
2022-11-27T05:30:55.262Z,42.69
2022-11-27T05:36:16.968Z,42.52
2022-11-27T05:41:41.142Z,42.26
2022-11-27T05:47:02.845Z,42.27
2022-11-27T05:52:24.569Z,42.56
2022-11-27T05:57:46.308Z,42.19
2022-11-27T06:03:08.098Z,42.55
2022-11-27T06:08:29.789Z,42.55
2022-11-27T06:13:51.772Z,42.05
2022-11-27T06:19:13.874Z,42.20
2022-11-27T06:24:35.556Z,42.42
2022-11-27T06:29:57.212Z,42.20
2022-11-27T06:35:18.899Z,41.90
2022-11-27T06:40:40.585Z,42.44
2022-11-27T06:46:03.610Z,42.01
2022-11-27T06:51:27.187Z,41.13
2022-11-27T06:56:52.086Z,40.51
2022-11-27T07:02:16.612Z,40.05
2022-11-27T07:07:43.438Z,40.34
2022-11-27T07:13:05.740Z,40.41
2022-11-27T07:18:28.228Z,40.00
2022-11-27T07:23:50.219Z,40.17
2022-11-27T07:29:11.861Z,40.77
2022-11-27T07:34:33.622Z,40.45
2022-11-27T07:40:02.307Z,40.83
2022-11-27T07:45:24.875Z,40.99
2022-11-27T07:50:46.828Z,41.34
2022-11-27T07:56:15.368Z,41.34
2022-11-27T08:01:37.069Z,41.53
2022-11-27T08:06:58.831Z,41.40
2022-11-27T08:12:20.600Z,41.71
2022-11-27T08:17:42.363Z,41.64
2022-11-27T08:23:04.757Z,41.52
2022-11-27T08:28:26.459Z,41.67
2022-11-27T08:33:48.183Z,41.79
2022-11-27T08:39:10.143Z,42.04
2022-11-27T08:44:31.892Z,41.86
2022-11-27T08:49:53.569Z,42.06
2022-11-27T08:55:15.425Z,41.96
2022-11-27T09:00:38.142Z,41.44
2022-11-27T09:06:00.098Z,41.49
2022-11-27T09:11:21.790Z,41.61
2022-11-27T09:16:43.572Z,41.71
2022-11-27T09:22:05.494Z,41.65
2022-11-27T09:27:27.489Z,41.95
2022-11-27T09:32:49.611Z,41.74
2022-11-27T09:38:11.310Z,41.69
2022-11-27T09:43:41.266Z,41.71
2022-11-27T09:49:07.696Z,42.02
2022-11-27T09:54:29.304Z,42.11
2022-11-27T09:59:53.168Z,41.97
2022-11-27T10:05:26.864Z,41.85
2022-11-27T10:11:06.867Z,41.96
2022-11-27T10:17:08.188Z,41.94
2022-11-27T10:23:15.120Z,42.11
2022-11-27T10:28:51.467Z,42.04
2022-11-27T10:34:48.756Z,42.52
2022-11-27T10:40:10.257Z,42.19
2022-11-27T10:45:38.391Z,42.18
2022-11-27T10:51:00.648Z,42.68
2022-11-27T10:56:50.733Z,42.61
2022-11-27T11:02:44.818Z,42.58
2022-11-27T11:08:17.468Z,42.21
2022-11-27T11:13:42.036Z,42.67
2022-11-27T11:19:06.338Z,42.44
2022-11-27T11:24:32.996Z,42.26
2022-11-27T11:30:02.927Z,42.54
2022-11-27T11:35:34.838Z,42.33
2022-11-27T11:41:02.407Z,42.37
2022-11-27T11:46:28.724Z,42.52
2022-11-27T11:51:50.460Z,42.76
2022-11-27T11:57:42.636Z,42.82
2022-11-27T12:03:23.924Z,42.73
2022-11-27T12:08:54.209Z,42.84
2022-11-27T12:14:34.429Z,42.74
2022-11-27T12:20:33.545Z,42.77
2022-11-27T12:26:20.101Z,43.26
2022-11-27T12:31:41.727Z,43.01
2022-11-27T12:37:28.480Z,42.45
2022-11-27T12:43:09.641Z,42.01
2022-11-27T12:48:36.720Z,41.48
2022-11-27T12:54:16.568Z,41.53
2022-11-27T12:59:43.867Z,41.48
2022-11-27T13:05:07.738Z,41.85
2022-11-27T13:10:32.413Z,41.72
2022-11-27T13:16:18.887Z,41.53
2022-11-27T13:21:43.177Z,41.75
2022-11-27T13:27:18.557Z,41.92
2022-11-27T13:32:47.041Z,41.53
2022-11-27T13:38:23.017Z,41.32
2022-11-27T13:43:47.025Z,41.40
2022-11-27T13:49:09.007Z,41.28
2022-11-27T13:54:30.720Z,40.87
2022-11-27T14:00:13.761Z,40.38
2022-11-27T14:05:45.611Z,40.26
2022-11-27T14:11:12.989Z,40.58
2022-11-27T14:16:36.277Z,40.79
2022-11-27T14:21:58.004Z,40.77
2022-11-27T14:27:26.019Z,40.87
2022-11-27T14:32:48.621Z,41.17
2022-11-27T14:38:11.730Z,41.32
2022-11-27T14:43:33.639Z,41.26
2022-11-27T14:48:59.256Z,40.78
2022-11-27T14:54:26.065Z,40.97
2022-11-27T14:59:47.803Z,40.43
2022-11-27T15:05:27.208Z,40.07
2022-11-27T15:10:53.234Z,40.27
2022-11-27T15:16:19.800Z,39.96
2022-11-27T15:21:41.566Z,39.51
2022-11-27T15:27:15.316Z,39.18
2022-11-27T15:32:51.763Z,39.38
2022-11-27T15:38:18.457Z,39.06
2022-11-27T15:43:40.129Z,39.24
2022-11-27T15:49:01.787Z,39.30
2022-11-27T15:54:24.737Z,39.13
2022-11-27T15:59:46.655Z,39.42
2022-11-27T16:05:09.146Z,39.59
2022-11-27T16:10:31.691Z,39.88
2022-11-27T16:15:53.482Z,39.90
2022-11-27T16:21:17.439Z,40.23
2022-11-27T16:26:39.173Z,39.95
2022-11-27T16:32:01.466Z,40.22
2022-11-27T16:37:23.768Z,40.55
2022-11-27T16:42:45.441Z,40.66
2022-11-27T16:48:07.556Z,40.73
2022-11-27T16:53:29.552Z,40.70
2022-11-27T16:58:52.007Z,40.98
2022-11-27T17:04:21.032Z,40.62
2022-11-27T17:09:42.726Z,40.72
2022-11-27T17:15:04.814Z,40.74
2022-11-27T17:20:26.746Z,41.20
2022-11-27T17:25:48.471Z,41.21
2022-11-27T17:31:13.016Z,41.13
2022-11-27T17:36:37.353Z,41.21
2022-11-27T17:41:59.260Z,41.36
2022-11-27T17:47:21.003Z,41.30
2022-11-27T17:52:42.686Z,41.20
2022-11-27T17:58:05.112Z,40.67
2022-11-27T18:03:28.742Z,40.62
2022-11-27T18:08:50.438Z,40.76
2022-11-27T18:14:13.756Z,40.76
2022-11-27T18:19:35.519Z,40.19
2022-11-27T18:24:57.276Z,40.09
2022-11-27T18:30:19.073Z,40.15
2022-11-27T18:35:42.584Z,40.55
2022-11-27T18:41:10.063Z,40.50
2022-11-27T18:46:32.085Z,40.24
2022-11-27T18:51:54.415Z,39.77
2022-11-27T18:57:16.179Z,39.52
2022-11-27T19:02:37.872Z,39.76
2022-11-27T19:08:04.334Z,39.47
2022-11-27T19:13:26.628Z,39.96
2022-11-27T19:18:48.501Z,39.96
2022-11-27T19:24:11.408Z,40.06
2022-11-27T19:29:33.123Z,39.73
2022-11-27T19:34:54.780Z,40.29
2022-11-27T19:40:17.486Z,40.38
2022-11-27T19:45:39.227Z,40.74
2022-11-27T19:51:02.125Z,40.67
2022-11-27T19:56:27.139Z,40.39
2022-11-27T20:01:48.944Z,40.54
2022-11-27T20:07:10.732Z,39.82
2022-11-27T20:12:36.472Z,39.90
2022-11-27T20:17:58.211Z,39.42
2022-11-27T20:23:19.921Z,39.49
2022-11-27T20:28:42.607Z,39.59
2022-11-27T20:34:06.170Z,39.35
2022-11-27T20:39:28.632Z,39.00
2022-11-27T20:44:50.368Z,38.90
2022-11-27T20:50:12.294Z,39.11
2022-11-27T20:55:34.599Z,39.25
2022-11-27T21:01:00.008Z,39.40
2022-11-27T21:06:25.031Z,39.51
2022-11-27T21:11:47.715Z,39.93
2022-11-27T21:17:09.640Z,39.52
2022-11-27T21:22:32.486Z,39.78
2022-11-27T21:27:56.076Z,39.89
2022-11-27T21:33:18.149Z,40.05
2022-11-27T21:38:39.986Z,39.99
2022-11-27T21:44:02.963Z,40.18
2022-11-27T21:49:24.714Z,40.46
2022-11-27T21:54:46.418Z,40.34
2022-11-27T22:00:08.889Z,40.54
2022-11-27T22:05:30.966Z,40.98
2022-11-27T22:10:52.681Z,40.72
2022-11-27T22:16:21.363Z,41.21
2022-11-27T22:21:44.575Z,41.12
2022-11-27T22:27:07.122Z,41.12
2022-11-27T22:32:29.171Z,41.19
2022-11-27T22:37:54.631Z,41.51
2022-11-27T22:43:16.338Z,41.33
2022-11-27T22:48:38.605Z,41.22
2022-11-27T22:54:02.378Z,41.21
2022-11-27T22:59:33.326Z,41.65
2022-11-27T23:04:56.002Z,41.46
2022-11-27T23:10:17.764Z,41.34
2022-11-27T23:15:39.718Z,41.35
2022-11-27T23:21:06.882Z,41.28
2022-11-27T23:26:28.540Z,41.38
2022-11-27T23:31:50.270Z,41.34
2022-11-27T23:37:12.199Z,41.88
2022-11-27T23:42:35.178Z,41.52
2022-11-27T23:47:56.836Z,41.80
2022-11-27T23:53:18.484Z,41.50
2022-11-27T23:58:46.436Z,41.32
